createdAt,value
2022-12-12T00:02:28.372Z,970.07
2022-12-12T00:08:49.861Z,970.02
2022-12-12T00:15:18.251Z,970.05
2022-12-12T00:21:52.248Z,970.09
2022-12-12T00:28:26.364Z,970.07
2022-12-12T00:34:52.140Z,970.05
2022-12-12T00:41:14.742Z,970.05
2022-12-12T00:47:44.636Z,970.09
2022-12-12T00:54:09.304Z,970.08
2022-12-12T01:00:36.313Z,970.11
2022-12-12T01:07:03.410Z,970.19
2022-12-12T01:13:22.656Z,970.15
2022-12-12T01:19:54.287Z,970.2
2022-12-12T01:26:24.290Z,970.29
2022-12-12T01:32:50.271Z,970.35
2022-12-12T01:39:16.410Z,970.41
2022-12-12T01:46:04.771Z,970.39
2022-12-12T01:52:48.529Z,970.48
2022-12-12T01:59:28.815Z,970.51
2022-12-12T02:06:00.289Z,970.52
2022-12-12T02:12:30.275Z,970.52
2022-12-12T02:19:28.530Z,970.55
2022-12-12T02:26:23.294Z,970.56
2022-12-12T02:33:35.351Z,970.56
2022-12-12T02:40:37.267Z,970.57
2022-12-12T02:47:46.969Z,970.61
2022-12-12T02:54:32.886Z,970.55
2022-12-12T03:01:25.654Z,970.59
2022-12-12T03:08:28.827Z,970.54
2022-12-12T03:15:32.780Z,970.55
2022-12-12T03:22:45.655Z,970.49
2022-12-12T03:29:57.212Z,970.52
2022-12-12T03:37:18.325Z,970.51
2022-12-12T03:44:28.615Z,970.45
2022-12-12T03:51:50.968Z,970.44
2022-12-12T03:58:55.820Z,970.46
2022-12-12T04:06:03.307Z,970.45
2022-12-12T04:13:07.737Z,970.54
2022-12-12T04:20:13.736Z,970.58
2022-12-12T04:27:22.351Z,970.65
2022-12-12T04:34:15.749Z,970.72
2022-12-12T04:41:20.684Z,970.81
2022-12-12T04:48:14.758Z,970.91
2022-12-12T04:55:09.324Z,970.93
2022-12-12T05:01:55.284Z,970.95
2022-12-12T05:09:03.234Z,970.96
2022-12-12T05:15:45.088Z,970.97
2022-12-12T05:22:24.252Z,971.02
2022-12-12T05:28:54.461Z,971.07
2022-12-12T05:35:18.419Z,971.08
2022-12-12T05:41:45.351Z,971.07
2022-12-12T05:48:15.126Z,971.05
2022-12-12T05:54:48.553Z,971.06
2022-12-12T06:01:12.267Z,971.13
2022-12-12T06:07:37.231Z,971.15
2022-12-12T06:14:02.425Z,971.18
2022-12-12T06:20:33.935Z,971.2
2022-12-12T06:27:04.197Z,971.26
2022-12-12T06:33:31.506Z,971.3
2022-12-12T06:40:09.186Z,971.31
2022-12-12T06:46:47.820Z,971.34
2022-12-12T06:53:14.898Z,971.36
2022-12-12T06:59:41.312Z,971.47
2022-12-12T07:06:04.935Z,971.44
2022-12-12T07:12:35.651Z,971.4
2022-12-12T07:18:58.863Z,971.46
2022-12-12T07:25:19.461Z,971.41
2022-12-12T07:31:50.435Z,971.46
2022-12-12T07:38:23.431Z,971.54
2022-12-12T07:44:57.349Z,971.54
2022-12-12T07:51:26.863Z,971.62
2022-12-12T07:57:50.996Z,971.76
2022-12-12T08:04:23.921Z,971.79
2022-12-12T08:10:47.418Z,971.84
2022-12-12T08:17:18.427Z,971.88
2022-12-12T08:23:42.435Z,971.95
2022-12-12T08:30:10.011Z,972.05
2022-12-12T08:36:32.510Z,972.09
2022-12-12T08:43:04.968Z,972.13
2022-12-12T08:49:33.433Z,972.17
2022-12-12T08:56:08.453Z,972.18
2022-12-12T09:02:38.743Z,972.23
2022-12-12T09:09:41.375Z,972.31
2022-12-12T09:16:04.689Z,972.32
2022-12-12T09:22:26.472Z,972.36
2022-12-12T09:28:54.885Z,972.34
2022-12-12T09:35:19.361Z,972.34
2022-12-12T09:41:56.314Z,972.36
2022-12-12T09:48:38.109Z,972.39
2022-12-12T09:55:32.336Z,972.36
2022-12-12T10:02:47.488Z,972.38
2022-12-12T10:09:39.870Z,972.26
2022-12-12T10:16:30.965Z,972.24
2022-12-12T10:23:33.893Z,972.18
2022-12-12T10:30:31.123Z,972.22
2022-12-12T10:37:53.148Z,972.23
2022-12-12T10:45:41.878Z,972.15
2022-12-12T10:53:39.445Z,972.09
2022-12-12T11:01:14.624Z,972.04
2022-12-12T11:08:46.532Z,972.01
2022-12-12T11:16:50.574Z,971.97
2022-12-12T11:24:37.125Z,971.91
2022-12-12T11:32:21.429Z,971.86
2022-12-12T11:40:21.950Z,971.86
2022-12-12T11:48:12.097Z,971.83
2022-12-12T11:56:10.539Z,971.73
2022-12-12T12:04:05.383Z,971.65
2022-12-12T12:12:36.024Z,971.57
2022-12-12T12:20:47.779Z,971.47
2022-12-12T12:28:53.870Z,971.48
2022-12-12T12:36:53.028Z,971.46
2022-12-12T12:44:59.399Z,971.39
2022-12-12T12:53:04.431Z,971.39
2022-12-12T13:01:16.053Z,971.43
2022-12-12T13:09:44.024Z,971.34
2022-12-12T13:17:49.617Z,971.26
2022-12-12T13:26:00.249Z,971.21
2022-12-12T13:34:16.150Z,971.18
2022-12-12T13:42:44.346Z,971.15
2022-12-12T13:50:47.880Z,971.14
2022-12-12T13:58:54.105Z,971.1
2022-12-12T14:07:03.618Z,970.98
2022-12-12T14:15:06.919Z,971.03
2022-12-12T14:23:11.648Z,971.02
2022-12-12T14:31:02.186Z,971.1
2022-12-12T14:39:14.603Z,971.21
2022-12-12T14:47:07.279Z,971.11
2022-12-12T14:54:59.265Z,971.03
2022-12-12T15:02:53.055Z,970.99
2022-12-12T15:10:44.907Z,970.96
2022-12-12T15:18:44.960Z,970.96
2022-12-12T15:26:26.812Z,971.07
2022-12-12T15:34:09.094Z,971.2
2022-12-12T15:41:54.642Z,971.32
2022-12-12T15:49:33.360Z,971.32
2022-12-12T15:57:21.409Z,971.23
2022-12-12T16:05:30.651Z,971.31
2022-12-12T16:13:20.618Z,971.27
2022-12-12T16:21:16.202Z,971.25
2022-12-12T16:28:58.239Z,971.33
2022-12-12T16:36:23.064Z,971.52
2022-12-12T16:44:11.762Z,971.52
2022-12-12T16:51:48.972Z,971.48
2022-12-12T16:59:20.987Z,971.49
2022-12-12T17:06:41.826Z,971.48
2022-12-12T17:14:00.858Z,971.53
2022-12-12T17:21:14.023Z,971.51
2022-12-12T17:28:32.568Z,971.47
2022-12-12T17:35:41.831Z,971.47
2022-12-12T17:42:44.733Z,971.5
2022-12-12T17:50:12.886Z,971.49
2022-12-12T17:57:50.116Z,971.37
2022-12-12T18:05:10.665Z,971.33
2022-12-12T18:12:25.452Z,971.32
2022-12-12T18:19:53.035Z,971.41
2022-12-12T18:27:42.095Z,971.45
2022-12-12T18:35:01.244Z,971.38
2022-12-12T18:42:24.939Z,971.36
2022-12-12T18:49:54.858Z,971.44
2022-12-12T18:57:06.174Z,971.36
2022-12-12T19:04:38.707Z,971.4
2022-12-12T19:12:10.216Z,971.48
2022-12-12T19:19:39.513Z,971.58
2022-12-12T19:27:11.767Z,971.57
2022-12-12T19:34:31.869Z,971.56
2022-12-12T19:41:51.613Z,971.55
2022-12-12T19:49:18.725Z,971.48
2022-12-12T19:56:29.047Z,971.51
2022-12-12T20:04:02.797Z,971.44
2022-12-12T20:11:32.166Z,971.45
2022-12-12T20:19:00.090Z,971.45
2022-12-12T20:26:12.419Z,971.43
2022-12-12T20:33:33.851Z,971.33
2022-12-12T20:40:52.871Z,971.31
2022-12-12T20:48:15.119Z,971.35
2022-12-12T20:55:51.096Z,971.33
2022-12-12T21:03:25.709Z,971.32
2022-12-12T21:10:58.235Z,971.31
2022-12-12T21:18:30.769Z,971.31
2022-12-12T21:25:56.653Z,971.25
2022-12-12T21:33:45.343Z,971.26
2022-12-12T21:41:13.005Z,971.25
2022-12-12T21:48:51.721Z,971.16
2022-12-12T21:56:26.308Z,971.18
2022-12-12T22:03:54.026Z,971.18
2022-12-12T22:11:40.627Z,971.13
2022-12-12T22:18:54.229Z,971.04
2022-12-12T22:26:05.668Z,971
2022-12-12T22:33:16.775Z,970.99
2022-12-12T22:40:34.794Z,971.03
2022-12-12T22:47:54.784Z,971.01
2022-12-12T22:54:59.548Z,970.94
2022-12-12T23:02:01.322Z,970.84
2022-12-12T23:09:22.242Z,970.82
2022-12-12T23:16:37.559Z,970.69
2022-12-12T23:23:48.949Z,970.63
2022-12-12T23:31:23.439Z,970.73
2022-12-12T23:38:49.356Z,970.62
2022-12-12T23:46:19.386Z,970.56
2022-12-12T23:53:49.684Z,970.41
